sensor_id;sensor_type;location;lat;lon;timestamp;pressure;altitude;pressure_sealevel;temperature
34125;BMP280;20110;53.120;5.786;2022-09-30T00:00:05;100822.06;;;14.10
34125;BMP280;20110;53.120;5.786;2022-09-30T00:02:31;100813.84;;;14.23
34125;BMP280;20110;53.120;5.786;2022-09-30T00:04:57;100807.44;;;14.34
34125;BMP280;20110;53.120;5.786;2022-09-30T00:07:23;100786.47;;;14.15
34125;BMP280;20110;53.120;5.786;2022-09-30T00:09:49;100789.25;;;14.02
34125;BMP280;20110;53.120;5.786;2022-09-30T00:12:15;100785.91;;;13.94
34125;BMP280;20110;53.120;5.786;2022-09-30T00:14:42;100799.59;;;13.98
34125;BMP280;20110;53.120;5.786;2022-09-30T00:17:08;100815.47;;;14.18
34125;BMP280;20110;53.120;5.786;2022-09-30T00:19:33;100793.38;;;14.10
34125;BMP280;20110;53.120;5.786;2022-09-30T00:21:59;100791.28;;;14.16
34125;BMP280;20110;53.120;5.786;2022-09-30T00:24:25;100789.28;;;14.17
34125;BMP280;20110;53.120;5.786;2022-09-30T00:26:51;100827.41;;;14.40
34125;BMP280;20110;53.120;5.786;2022-09-30T00:29:16;100813.69;;;14.28
34125;BMP280;20110;53.120;5.786;2022-09-30T00:31:42;100788.72;;;13.96
34125;BMP280;20110;53.120;5.786;2022-09-30T00:34:08;100807.44;;;13.96
34125;BMP280;20110;53.120;5.786;2022-09-30T00:36:52;100814.56;;;13.93
34125;BMP280;20110;53.120;5.786;2022-09-30T00:39:25;100805.84;;;14.08
34125;BMP280;20110;53.120;5.786;2022-09-30T00:41:56;100810.88;;;14.26
34125;BMP280;20110;53.120;5.786;2022-09-30T00:45:04;100808.69;;;14.17
34125;BMP280;20110;53.120;5.786;2022-09-30T00:47:52;100811.91;;;14.16
34125;BMP280;20110;53.120;5.786;2022-09-30T00:50:42;100796.75;;;13.96
34125;BMP280;20110;53.120;5.786;2022-09-30T00:53:30;100820.59;;;13.94
34125;BMP280;20110;53.120;5.786;2022-09-30T00:56:11;100815.38;;;13.65
34125;BMP280;20110;53.120;5.786;2022-09-30T01:01:12;100789.13;;;13.33
34125;BMP280;20110;53.120;5.786;2022-09-30T01:03:53;100802.41;;;13.26
34125;BMP280;20110;53.120;5.786;2022-09-30T01:06:23;100817.44;;;13.44
34125;BMP280;20110;53.120;5.786;2022-09-30T01:08:50;100800.34;;;13.39
34125;BMP280;20110;53.120;5.786;2022-09-30T01:11:15;100807.22;;;13.35
34125;BMP280;20110;53.120;5.786;2022-09-30T01:13:48;100823.00;;;13.25
34125;BMP280;20110;53.120;5.786;2022-09-30T01:31:56;100814.41;;;13.40
34125;BMP280;20110;53.120;5.786;2022-09-30T01:38:08;100803.88;;;12.98
34125;BMP280;20110;53.120;5.786;2022-09-30T01:43:45;100829.16;;;13.12
34125;BMP280;20110;53.120;5.786;2022-09-30T01:46:28;100814.31;;;13.25
34125;BMP280;20110;53.120;5.786;2022-09-30T01:49:17;100832.75;;;13.51
34125;BMP280;20110;53.120;5.786;2022-09-30T01:52:08;100839.84;;;13.48
34125;BMP280;20110;53.120;5.786;2022-09-30T01:55:21;100829.34;;;13.43
34125;BMP280;20110;53.120;5.786;2022-09-30T01:58:04;100830.97;;;13.53
34125;BMP280;20110;53.120;5.786;2022-09-30T02:00:37;100826.72;;;13.50
34125;BMP280;20110;53.120;5.786;2022-09-30T02:03:16;100816.13;;;13.37
34125;BMP280;20110;53.120;5.786;2022-09-30T02:06:07;100840.56;;;13.49
34125;BMP280;20110;53.120;5.786;2022-09-30T02:08:48;100818.31;;;13.46
34125;BMP280;20110;53.120;5.786;2022-09-30T02:11:22;100838.47;;;13.63
34125;BMP280;20110;53.120;5.786;2022-09-30T02:14:01;100844.16;;;13.59
34125;BMP280;20110;53.120;5.786;2022-09-30T02:16:46;100834.25;;;13.31
34125;BMP280;20110;53.120;5.786;2022-09-30T02:19:22;100807.19;;;12.91
34125;BMP280;20110;53.120;5.786;2022-09-30T02:22:14;100850.34;;;12.90
34125;BMP280;20110;53.120;5.786;2022-09-30T02:24:43;100814.50;;;12.49
34125;BMP280;20110;53.120;5.786;2022-09-30T02:27:30;100830.03;;;12.37
34125;BMP280;20110;53.120;5.786;2022-09-30T02:30:00;100839.19;;;12.29
34125;BMP280;20110;53.120;5.786;2022-09-30T02:32:39;100840.75;;;12.24
34125;BMP280;20110;53.120;5.786;2022-09-30T02:35:17;100841.47;;;12.25
34125;BMP280;20110;53.120;5.786;2022-09-30T02:37:51;100815.91;;;12.08
34125;BMP280;20110;53.120;5.786;2022-09-30T02:43:05;100847.84;;;12.42
34125;BMP280;20110;53.120;5.786;2022-09-30T02:46:04;100856.13;;;12.52
34125;BMP280;20110;53.120;5.786;2022-09-30T02:49:04;100847.63;;;12.61
34125;BMP280;20110;53.120;5.786;2022-09-30T02:51:57;100856.22;;;12.67
34125;BMP280;20110;53.120;5.786;2022-09-30T03:00:11;100854.47;;;12.70
34125;BMP280;20110;53.120;5.786;2022-09-30T03:02:39;100838.94;;;12.40
34125;BMP280;20110;53.120;5.786;2022-09-30T03:05:07;100858.44;;;12.56
34125;BMP280;20110;53.120;5.786;2022-09-30T03:07:33;100859.50;;;12.53
34125;BMP280;20110;53.120;5.786;2022-09-30T03:09:59;100861.38;;;12.44
34125;BMP280;20110;53.120;5.786;2022-09-30T03:12:45;100869.88;;;12.43
34125;BMP280;20110;53.120;5.786;2022-09-30T03:24:35;100851.69;;;12.55
34125;BMP280;20110;53.120;5.786;2022-09-30T03:30:15;100826.13;;;12.18
34125;BMP280;20110;53.120;5.786;2022-09-30T03:36:19;100845.50;;;12.39
34125;BMP280;20110;53.120;5.786;2022-09-30T03:39:14;100831.28;;;12.36
34125;BMP280;20110;53.120;5.786;2022-09-30T03:41:52;100843.09;;;12.48
34125;BMP280;20110;53.120;5.786;2022-09-30T03:45:06;100854.97;;;12.47
34125;BMP280;20110;53.120;5.786;2022-09-30T03:47:40;100871.84;;;12.63
34125;BMP280;20110;53.120;5.786;2022-09-30T03:50:09;100843.09;;;12.48
34125;BMP280;20110;53.120;5.786;2022-09-30T03:52:37;100855.38;;;12.52
34125;BMP280;20110;53.120;5.786;2022-09-30T03:55:05;100847.97;;;12.37
34125;BMP280;20110;53.120;5.786;2022-09-30T03:57:33;100852.25;;;12.40
34125;BMP280;20110;53.120;5.786;2022-09-30T03:59:59;100842.47;;;12.56
34125;BMP280;20110;53.120;5.786;2022-09-30T04:02:26;100839.94;;;12.71
34125;BMP280;20110;53.120;5.786;2022-09-30T04:04:52;100812.13;;;12.38
34125;BMP280;20110;53.120;5.786;2022-09-30T04:07:18;100834.94;;;12.46
34125;BMP280;20110;53.120;5.786;2022-09-30T04:09:44;100844.94;;;12.33
34125;BMP280;20110;53.120;5.786;2022-09-30T04:12:11;100872.59;;;12.51
34125;BMP280;20110;53.120;5.786;2022-09-30T04:14:36;100863.56;;;12.54
34125;BMP280;20110;53.120;5.786;2022-09-30T04:17:03;100861.34;;;12.65
34125;BMP280;20110;53.120;5.786;2022-09-30T04:19:29;100871.06;;;12.76
34125;BMP280;20110;53.120;5.786;2022-09-30T04:21:55;100863.44;;;12.80
34125;BMP280;20110;53.120;5.786;2022-09-30T04:24:23;100865.19;;;12.77
34125;BMP280;20110;53.120;5.786;2022-09-30T04:26:50;100865.03;;;12.83
34125;BMP280;20110;53.120;5.786;2022-09-30T04:29:16;100866.69;;;12.86
34125;BMP280;20110;53.120;5.786;2022-09-30T04:31:42;100843.34;;;12.79
34125;BMP280;20110;53.120;5.786;2022-09-30T04:34:08;100844.22;;;12.74
34125;BMP280;20110;53.120;5.786;2022-09-30T04:36:36;100873.69;;;12.97
34125;BMP280;20110;53.120;5.786;2022-09-30T04:39:03;100866.47;;;12.84
34125;BMP280;20110;53.120;5.786;2022-09-30T04:41:29;100871.91;;;12.71
34125;BMP280;20110;53.120;5.786;2022-09-30T04:43:57;100878.53;;;12.57
34125;BMP280;20110;53.120;5.786;2022-09-30T04:46:23;100871.34;;;12.52
34125;BMP280;20110;53.120;5.786;2022-09-30T04:48:49;100890.97;;;12.62
34125;BMP280;20110;53.120;5.786;2022-09-30T04:51:18;100874.34;;;12.69
34125;BMP280;20110;53.120;5.786;2022-09-30T04:53:45;100899.13;;;12.98
34125;BMP280;20110;53.120;5.786;2022-09-30T04:56:12;100897.72;;;13.04
34125;BMP280;20110;53.120;5.786;2022-09-30T04:58:38;100879.41;;;12.80
34125;BMP280;20110;53.120;5.786;2022-09-30T05:01:11;100911.41;;;12.80
34125;BMP280;20110;53.120;5.786;2022-09-30T05:03:38;100887.47;;;12.46
34125;BMP280;20110;53.120;5.786;2022-09-30T05:06:06;100893.22;;;12.37
34125;BMP280;20110;53.120;5.786;2022-09-30T05:08:32;100896.53;;;12.30
34125;BMP280;20110;53.120;5.786;2022-09-30T05:11:02;100914.75;;;12.39
34125;BMP280;20110;53.120;5.786;2022-09-30T05:13:34;100912.88;;;12.47
34125;BMP280;20110;53.120;5.786;2022-09-30T05:16:01;100902.69;;;12.59
34125;BMP280;20110;53.120;5.786;2022-09-30T05:18:28;100908.03;;;12.59
34125;BMP280;20110;53.120;5.786;2022-09-30T05:20:56;100917.00;;;12.69
34125;BMP280;20110;53.120;5.786;2022-09-30T05:23:23;100903.91;;;12.78
34125;BMP280;20110;53.120;5.786;2022-09-30T05:25:50;100885.66;;;12.82
34125;BMP280;20110;53.120;5.786;2022-09-30T05:28:17;100914.47;;;13.12
34125;BMP280;20110;53.120;5.786;2022-09-30T05:30:44;100914.41;;;13.26
34125;BMP280;20110;53.120;5.786;2022-09-30T05:33:11;100920.38;;;13.39
34125;BMP280;20110;53.120;5.786;2022-09-30T05:35:42;100923.25;;;13.49
34125;BMP280;20110;53.120;5.786;2022-09-30T05:38:09;100921.50;;;13.51
34125;BMP280;20110;53.120;5.786;2022-09-30T05:40:39;100909.72;;;13.39
34125;BMP280;20110;53.120;5.786;2022-09-30T05:43:06;100893.28;;;13.28
34125;BMP280;20110;53.120;5.786;2022-09-30T05:45:33;100924.47;;;13.48
34125;BMP280;20110;53.120;5.786;2022-09-30T05:47:59;100928.69;;;13.64
34125;BMP280;20110;53.120;5.786;2022-09-30T05:50:26;100933.50;;;13.73
34125;BMP280;20110;53.120;5.786;2022-09-30T05:52:51;100919.25;;;13.63
34125;BMP280;20110;53.120;5.786;2022-09-30T05:55:19;100931.56;;;13.74
34125;BMP280;20110;53.120;5.786;2022-09-30T05:57:50;100899.81;;;13.55
34125;BMP280;20110;53.120;5.786;2022-09-30T06:00:18;100924.69;;;13.86
34125;BMP280;20110;53.120;5.786;2022-09-30T06:02:44;100921.53;;;13.95
34125;BMP280;20110;53.120;5.786;2022-09-30T06:05:11;100916.91;;;14.03
34125;BMP280;20110;53.120;5.786;2022-09-30T06:07:38;100920.31;;;14.11
34125;BMP280;20110;53.120;5.786;2022-09-30T06:10:07;100934.25;;;14.25
34125;BMP280;20110;53.120;5.786;2022-09-30T06:12:35;100911.06;;;14.20
34125;BMP280;20110;53.120;5.786;2022-09-30T06:15:02;100921.25;;;14.29
34125;BMP280;20110;53.120;5.786;2022-09-30T06:17:28;100900.41;;;14.20
34125;BMP280;20110;53.120;5.786;2022-09-30T06:19:54;100931.63;;;14.48
34125;BMP280;20110;53.120;5.786;2022-09-30T06:22:20;100914.13;;;14.39
34125;BMP280;20110;53.120;5.786;2022-09-30T06:24:46;100900.41;;;14.35
34125;BMP280;20110;53.120;5.786;2022-09-30T06:27:12;100910.41;;;14.50
34125;BMP280;20110;53.120;5.786;2022-09-30T06:29:38;100922.72;;;14.60
34125;BMP280;20110;53.120;5.786;2022-09-30T06:32:05;100925.38;;;14.68
34125;BMP280;20110;53.120;5.786;2022-09-30T06:34:31;100924.84;;;14.70
34125;BMP280;20110;53.120;5.786;2022-09-30T06:36:57;100942.13;;;14.91
34125;BMP280;20110;53.120;5.786;2022-09-30T06:39:23;100943.03;;;14.94
34125;BMP280;20110;53.120;5.786;2022-09-30T06:41:48;100941.94;;;14.97
34125;BMP280;20110;53.120;5.786;2022-09-30T06:44:14;100943.72;;;15.10
34125;BMP280;20110;53.120;5.786;2022-09-30T06:46:40;100917.72;;;15.02
34125;BMP280;20110;53.120;5.786;2022-09-30T06:49:06;100947.78;;;15.26
34125;BMP280;20110;53.120;5.786;2022-09-30T06:51:32;100928.91;;;15.24
34125;BMP280;20110;53.120;5.786;2022-09-30T06:53:59;100940.09;;;15.37
34125;BMP280;20110;53.120;5.786;2022-09-30T06:56:25;100942.19;;;15.54
34125;BMP280;20110;53.120;5.786;2022-09-30T06:58:52;100935.22;;;15.59
34125;BMP280;20110;53.120;5.786;2022-09-30T07:01:19;100914.88;;;15.56
34125;BMP280;20110;53.120;5.786;2022-09-30T07:03:46;100955.63;;;15.87
34125;BMP280;20110;53.120;5.786;2022-09-30T07:06:13;100947.53;;;15.94
34125;BMP280;20110;53.120;5.786;2022-09-30T07:08:39;100942.75;;;15.93
34125;BMP280;20110;53.120;5.786;2022-09-30T07:11:09;100956.06;;;16.08
34125;BMP280;20110;53.120;5.786;2022-09-30T07:13:48;100949.78;;;16.13
34125;BMP280;20110;53.120;5.786;2022-09-30T07:16:16;100940.22;;;16.27
34125;BMP280;20110;53.120;5.786;2022-09-30T07:18:44;100934.16;;;16.27
34125;BMP280;20110;53.120;5.786;2022-09-30T07:21:12;100939.06;;;16.38
34125;BMP280;20110;53.120;5.786;2022-09-30T07:23:41;100919.59;;;16.37
34125;BMP280;20110;53.120;5.786;2022-09-30T07:26:16;100945.78;;;16.54
34125;BMP280;20110;53.120;5.786;2022-09-30T07:28:43;100938.09;;;16.50
34125;BMP280;20110;53.120;5.786;2022-09-30T07:31:16;100921.81;;;16.31
34125;BMP280;20110;53.120;5.786;2022-09-30T07:33:44;100940.94;;;16.52
34125;BMP280;20110;53.120;5.786;2022-09-30T07:36:11;100938.59;;;16.57
34125;BMP280;20110;53.120;5.786;2022-09-30T07:38:40;100939.59;;;16.61
34125;BMP280;20110;53.120;5.786;2022-09-30T07:41:17;100941.38;;;16.66
34125;BMP280;20110;53.120;5.786;2022-09-30T07:43:45;100932.31;;;16.79
34125;BMP280;20110;53.120;5.786;2022-09-30T07:46:20;100932.97;;;16.87
34125;BMP280;20110;53.120;5.786;2022-09-30T07:48:49;100929.28;;;17.00
34125;BMP280;20110;53.120;5.786;2022-09-30T07:51:24;100942.69;;;17.17
34125;BMP280;20110;53.120;5.786;2022-09-30T07:53:58;100945.91;;;17.33
34125;BMP280;20110;53.120;5.786;2022-09-30T07:56:27;100935.56;;;17.46
34125;BMP280;20110;53.120;5.786;2022-09-30T07:58:59;100933.63;;;17.56
34125;BMP280;20110;53.120;5.786;2022-09-30T08:01:27;100916.81;;;17.56
34125;BMP280;20110;53.120;5.786;2022-09-30T08:03:56;100922.84;;;17.74
34125;BMP280;20110;53.120;5.786;2022-09-30T08:06:25;100896.81;;;17.66
34125;BMP280;20110;53.120;5.786;2022-09-30T08:08:54;100924.19;;;17.92
34125;BMP280;20110;53.120;5.786;2022-09-30T08:11:21;100926.06;;;17.99
34125;BMP280;20110;53.120;5.786;2022-09-30T08:13:54;100912.78;;;18.01
34125;BMP280;20110;53.120;5.786;2022-09-30T08:16:23;100913.84;;;18.15
34125;BMP280;20110;53.120;5.786;2022-09-30T08:18:54;100909.19;;;18.25
34125;BMP280;20110;53.120;5.786;2022-09-30T08:21:20;100917.03;;;18.40
34125;BMP280;20110;53.120;5.786;2022-09-30T08:23:46;100924.53;;;18.52
34125;BMP280;20110;53.120;5.786;2022-09-30T08:26:13;100944.94;;;18.64
34125;BMP280;20110;53.120;5.786;2022-09-30T08:28:40;100939.69;;;18.66
34125;BMP280;20110;53.120;5.786;2022-09-30T08:31:10;100939.69;;;18.76
34125;BMP280;20110;53.120;5.786;2022-09-30T08:33:38;100916.91;;;18.77
34125;BMP280;20110;53.120;5.786;2022-09-30T08:36:14;100909.97;;;18.74
34125;BMP280;20110;53.120;5.786;2022-09-30T08:38:41;100920.63;;;18.91
34125;BMP280;20110;53.120;5.786;2022-09-30T08:41:58;100937.63;;;19.03
34125;BMP280;20110;53.120;5.786;2022-09-30T08:50:03;100946.06;;;19.28
34125;BMP280;20110;53.120;5.786;2022-09-30T08:52:44;100934.56;;;19.38
34125;BMP280;20110;53.120;5.786;2022-09-30T08:55:24;100938.69;;;19.39
34125;BMP280;20110;53.120;5.786;2022-09-30T08:57:53;100938.53;;;19.56
34125;BMP280;20110;53.120;5.786;2022-09-30T09:00:21;100944.59;;;19.66
34125;BMP280;20110;53.120;5.786;2022-09-30T09:02:51;100956.16;;;19.78
34125;BMP280;20110;53.120;5.786;2022-09-30T09:05:46;100956.69;;;19.86
34125;BMP280;20110;53.120;5.786;2022-09-30T09:20:17;100918.06;;;20.45
34125;BMP280;20110;53.120;5.786;2022-09-30T09:22:47;100939.69;;;20.78
34125;BMP280;20110;53.120;5.786;2022-09-30T09:25:18;100946.03;;;20.83
34125;BMP280;20110;53.120;5.786;2022-09-30T09:30:24;100929.56;;;22.16
34125;BMP280;20110;53.120;5.786;2022-09-30T09:32:57;100937.56;;;22.77
34125;BMP280;20110;53.120;5.786;2022-09-30T09:38:39;100947.53;;;24.36
34125;BMP280;20110;53.120;5.786;2022-09-30T09:41:31;100950.22;;;24.95
34125;BMP280;20110;53.120;5.786;2022-09-30T09:44:21;100948.00;;;25.38
34125;BMP280;20110;53.120;5.786;2022-09-30T09:47:08;100934.03;;;25.46
34125;BMP280;20110;53.120;5.786;2022-09-30T09:49:43;100941.03;;;25.68
34125;BMP280;20110;53.120;5.786;2022-09-30T09:54:51;100941.41;;;25.94
34125;BMP280;20110;53.120;5.786;2022-09-30T09:57:20;100910.94;;;25.80
34125;BMP280;20110;53.120;5.786;2022-09-30T10:00:24;100925.84;;;25.79
34125;BMP280;20110;53.120;5.786;2022-09-30T10:03:35;100916.63;;;25.86
34125;BMP280;20110;53.120;5.786;2022-09-30T10:06:10;100921.28;;;26.19
34125;BMP280;20110;53.120;5.786;2022-09-30T10:08:57;100871.13;;;25.89
34125;BMP280;20110;53.120;5.786;2022-09-30T10:11:26;100921.41;;;26.41
34125;BMP280;20110;53.120;5.786;2022-09-30T10:13:59;100903.66;;;26.40
34125;BMP280;20110;53.120;5.786;2022-09-30T10:16:34;100894.56;;;26.33
34125;BMP280;20110;53.120;5.786;2022-09-30T10:19:17;100916.41;;;26.53
34125;BMP280;20110;53.120;5.786;2022-09-30T10:21:43;100894.28;;;26.62
34125;BMP280;20110;53.120;5.786;2022-09-30T10:24:39;100905.31;;;26.47
34125;BMP280;20110;53.120;5.786;2022-09-30T10:27:27;100869.09;;;26.25
34125;BMP280;20110;53.120;5.786;2022-09-30T10:29:53;100907.16;;;26.42
34125;BMP280;20110;53.120;5.786;2022-09-30T10:32:20;100911.72;;;26.55
34125;BMP280;20110;53.120;5.786;2022-09-30T10:34:57;100928.22;;;26.59
34125;BMP280;20110;53.120;5.786;2022-09-30T10:37:27;100911.88;;;26.59
34125;BMP280;20110;53.120;5.786;2022-09-30T10:40:01;100926.63;;;26.72
34125;BMP280;20110;53.120;5.786;2022-09-30T10:42:33;100915.59;;;26.68
34125;BMP280;20110;53.120;5.786;2022-09-30T10:45:15;100910.75;;;26.67
34125;BMP280;20110;53.120;5.786;2022-09-30T10:47:47;100918.47;;;26.92
34125;BMP280;20110;53.120;5.786;2022-09-30T10:50:19;100924.03;;;27.16
34125;BMP280;20110;53.120;5.786;2022-09-30T10:53:03;100889.53;;;26.83
34125;BMP280;20110;53.120;5.786;2022-09-30T10:55:41;100911.38;;;26.85
34125;BMP280;20110;53.120;5.786;2022-09-30T10:58:44;100908.47;;;26.79
34125;BMP280;20110;53.120;5.786;2022-09-30T11:01:35;100900.00;;;26.90
34125;BMP280;20110;53.120;5.786;2022-09-30T11:07:28;100919.81;;;27.11
34125;BMP280;20110;53.120;5.786;2022-09-30T11:13:03;100898.81;;;26.76
34125;BMP280;20110;53.120;5.786;2022-09-30T11:16:05;100889.31;;;26.77
34125;BMP280;20110;53.120;5.786;2022-09-30T11:21:55;100906.78;;;26.70
34125;BMP280;20110;53.120;5.786;2022-09-30T11:34:17;100897.41;;;26.94
34125;BMP280;20110;53.120;5.786;2022-09-30T11:36:38;100880.25;;;26.90
34125;BMP280;20110;53.120;5.786;2022-09-30T11:44:33;100891.69;;;26.86
34125;BMP280;20110;53.120;5.786;2022-09-30T11:50:02;100887.84;;;26.74
34125;BMP280;20110;53.120;5.786;2022-09-30T11:52:55;100859.91;;;26.93
34125;BMP280;20110;53.120;5.786;2022-09-30T11:58:17;100869.41;;;27.33
34125;BMP280;20110;53.120;5.786;2022-09-30T12:00:54;100845.69;;;27.16
34125;BMP280;20110;53.120;5.786;2022-09-30T12:03:28;100846.81;;;27.31
34125;BMP280;20110;53.120;5.786;2022-09-30T12:06:03;100866.38;;;27.45
34125;BMP280;20110;53.120;5.786;2022-09-30T12:08:58;100857.13;;;26.71
34125;BMP280;20110;53.120;5.786;2022-09-30T12:11:56;100848.41;;;26.96
34125;BMP280;20110;53.120;5.786;2022-09-30T12:14:35;100829.31;;;26.75
34125;BMP280;20110;53.120;5.786;2022-09-30T12:17:20;100800.94;;;26.03
34125;BMP280;20110;53.120;5.786;2022-09-30T12:19:54;100824.59;;;26.18
34125;BMP280;20110;53.120;5.786;2022-09-30T12:22:28;100843.72;;;26.57
34125;BMP280;20110;53.120;5.786;2022-09-30T12:24:56;100827.72;;;26.68
34125;BMP280;20110;53.120;5.786;2022-09-30T12:27:40;100815.31;;;26.84
34125;BMP280;20110;53.120;5.786;2022-09-30T12:30:15;100825.06;;;27.11
34125;BMP280;20110;53.120;5.786;2022-09-30T12:49:54;100812.91;;;26.53
34125;BMP280;20110;53.120;5.786;2022-09-30T12:52:22;100808.03;;;26.49
34125;BMP280;20110;53.120;5.786;2022-09-30T12:55:27;100830.69;;;26.76
34125;BMP280;20110;53.120;5.786;2022-09-30T12:57:55;100784.28;;;26.52
34125;BMP280;20110;53.120;5.786;2022-09-30T13:00:25;100819.84;;;26.56
34125;BMP280;20110;53.120;5.786;2022-09-30T13:03:03;100814.88;;;26.70
34125;BMP280;20110;53.120;5.786;2022-09-30T13:08:21;100788.97;;;26.69
34125;BMP280;20110;53.120;5.786;2022-09-30T13:10:58;100797.69;;;26.66
34125;BMP280;20110;53.120;5.786;2022-09-30T13:13:29;100789.72;;;26.72
34125;BMP280;20110;53.120;5.786;2022-09-30T13:16:00;100809.00;;;26.58
34125;BMP280;20110;53.120;5.786;2022-09-30T13:23:36;100789.75;;;25.42
34125;BMP280;20110;53.120;5.786;2022-09-30T13:26:22;100785.19;;;25.29
34125;BMP280;20110;53.120;5.786;2022-09-30T13:34:30;100762.84;;;24.81
34125;BMP280;20110;53.120;5.786;2022-09-30T13:37:03;100772.19;;;24.76
34125;BMP280;20110;53.120;5.786;2022-09-30T13:45:43;100761.06;;;24.38
34125;BMP280;20110;53.120;5.786;2022-09-30T13:51:12;100755.19;;;24.13
34125;BMP280;20110;53.120;5.786;2022-09-30T13:53:49;100765.78;;;24.22
34125;BMP280;20110;53.120;5.786;2022-09-30T13:56:26;100731.19;;;23.91
34125;BMP280;20110;53.120;5.786;2022-09-30T14:11:18;100740.59;;;23.75
34125;BMP280;20110;53.120;5.786;2022-09-30T14:14:06;100713.44;;;23.59
34125;BMP280;20110;53.120;5.786;2022-09-30T14:17:26;100753.41;;;23.88
34125;BMP280;20110;53.120;5.786;2022-09-30T14:20:33;100746.88;;;24.09
34125;BMP280;20110;53.120;5.786;2022-09-30T14:23:00;100701.69;;;23.84
34125;BMP280;20110;53.120;5.786;2022-09-30T14:25:37;100684.03;;;23.99
34125;BMP280;20110;53.120;5.786;2022-09-30T14:28:16;100733.13;;;24.36
34125;BMP280;20110;53.120;5.786;2022-09-30T14:30:44;100713.91;;;24.30
34125;BMP280;20110;53.120;5.786;2022-09-30T14:33:30;100721.84;;;23.95
34125;BMP280;20110;53.120;5.786;2022-09-30T14:36:01;100721.19;;;23.65
34125;BMP280;20110;53.120;5.786;2022-09-30T14:38:31;100722.28;;;23.60
34125;BMP280;20110;53.120;5.786;2022-09-30T14:41:03;100729.22;;;23.49
34125;BMP280;20110;53.120;5.786;2022-09-30T14:43:39;100699.09;;;23.27
34125;BMP280;20110;53.120;5.786;2022-09-30T14:46:33;100690.44;;;23.31
34125;BMP280;20110;53.120;5.786;2022-09-30T14:49:04;100712.13;;;23.31
34125;BMP280;20110;53.120;5.786;2022-09-30T14:51:43;100696.00;;;23.19
34125;BMP280;20110;53.120;5.786;2022-09-30T14:54:20;100702.81;;;23.20
34125;BMP280;20110;53.120;5.786;2022-09-30T14:56:48;100689.03;;;23.30
34125;BMP280;20110;53.120;5.786;2022-09-30T14:59:24;100700.16;;;23.36
34125;BMP280;20110;53.120;5.786;2022-09-30T15:01:57;100695.31;;;23.48
34125;BMP280;20110;53.120;5.786;2022-09-30T15:04:29;100695.41;;;23.50
34125;BMP280;20110;53.120;5.786;2022-09-30T15:06:57;100675.19;;;23.37
34125;BMP280;20110;53.120;5.786;2022-09-30T15:09:40;100709.28;;;23.72
34125;BMP280;20110;53.120;5.786;2022-09-30T15:12:14;100688.13;;;23.84
34125;BMP280;20110;53.120;5.786;2022-09-30T15:14:56;100710.53;;;24.16
34125;BMP280;20110;53.120;5.786;2022-09-30T15:17:37;100701.81;;;24.17
34125;BMP280;20110;53.120;5.786;2022-09-30T15:20:28;100670.03;;;23.88
34125;BMP280;20110;53.120;5.786;2022-09-30T15:22:59;100684.25;;;23.73
34125;BMP280;20110;53.120;5.786;2022-09-30T15:25:29;100681.47;;;23.71
34125;BMP280;20110;53.120;5.786;2022-09-30T15:27:56;100669.09;;;23.23
34125;BMP280;20110;53.120;5.786;2022-09-30T15:30:26;100704.38;;;23.39
34125;BMP280;20110;53.120;5.786;2022-09-30T15:33:00;100706.84;;;23.48
34125;BMP280;20110;53.120;5.786;2022-09-30T15:35:28;100713.41;;;23.43
34125;BMP280;20110;53.120;5.786;2022-09-30T15:38:15;100709.53;;;23.33
34125;BMP280;20110;53.120;5.786;2022-09-30T15:40:45;100695.97;;;23.33
34125;BMP280;20110;53.120;5.786;2022-09-30T15:43:15;100694.81;;;23.09
34125;BMP280;20110;53.120;5.786;2022-09-30T15:45:53;100705.56;;;23.07
34125;BMP280;20110;53.120;5.786;2022-09-30T15:50:58;100660.75;;;22.49
34125;BMP280;20110;53.120;5.786;2022-09-30T15:56:31;100703.19;;;22.58
34125;BMP280;20110;53.120;5.786;2022-09-30T16:01:49;100682.78;;;22.43
34125;BMP280;20110;53.120;5.786;2022-09-30T16:07:07;100697.91;;;22.35
34125;BMP280;20110;53.120;5.786;2022-09-30T16:09:39;100675.44;;;22.18
34125;BMP280;20110;53.120;5.786;2022-09-30T16:14:53;100688.59;;;21.99
34125;BMP280;20110;53.120;5.786;2022-09-30T16:17:33;100680.91;;;21.93
34125;BMP280;20110;53.120;5.786;2022-09-30T16:20:22;100698.63;;;21.96
34125;BMP280;20110;53.120;5.786;2022-09-30T16:22:53;100693.00;;;21.92
34125;BMP280;20110;53.120;5.786;2022-09-30T16:25:29;100691.91;;;21.97
34125;BMP280;20110;53.120;5.786;2022-09-30T16:28:10;100669.09;;;21.75
34125;BMP280;20110;53.120;5.786;2022-09-30T16:30:45;100687.75;;;21.83
34125;BMP280;20110;53.120;5.786;2022-09-30T16:33:13;100632.63;;;21.62
34125;BMP280;20110;53.120;5.786;2022-09-30T16:35:44;100670.59;;;21.53
34125;BMP280;20110;53.120;5.786;2022-09-30T16:38:15;100681.16;;;21.60
34125;BMP280;20110;53.120;5.786;2022-09-30T16:40:41;100654.69;;;21.33
34125;BMP280;20110;53.120;5.786;2022-09-30T16:43:07;100655.28;;;21.32
34125;BMP280;20110;53.120;5.786;2022-09-30T16:45:36;100686.25;;;21.43
34125;BMP280;20110;53.120;5.786;2022-09-30T16:48:15;100664.59;;;21.29
34125;BMP280;20110;53.120;5.786;2022-09-30T16:53:29;100655.66;;;21.15
34125;BMP280;20110;53.120;5.786;2022-09-30T16:55:55;100650.91;;;21.02
34125;BMP280;20110;53.120;5.786;2022-09-30T16:58:21;100659.78;;;21.04
34125;BMP280;20110;53.120;5.786;2022-09-30T17:00:48;100642.81;;;20.90
34125;BMP280;20110;53.120;5.786;2022-09-30T17:03:16;100661.47;;;20.98
34125;BMP280;20110;53.120;5.786;2022-09-30T17:05:45;100645.03;;;20.82
34125;BMP280;20110;53.120;5.786;2022-09-30T17:08:13;100646.31;;;20.81
34125;BMP280;20110;53.120;5.786;2022-09-30T17:10:43;100663.13;;;20.79
34125;BMP280;20110;53.120;5.786;2022-09-30T17:13:11;100656.09;;;20.74
34125;BMP280;20110;53.120;5.786;2022-09-30T17:15:40;100629.34;;;20.55
34125;BMP280;20110;53.120;5.786;2022-09-30T17:18:10;100638.84;;;20.56
34125;BMP280;20110;53.120;5.786;2022-09-30T17:20:40;100632.16;;;20.57
34125;BMP280;20110;53.120;5.786;2022-09-30T17:23:06;100617.38;;;20.46
34125;BMP280;20110;53.120;5.786;2022-09-30T17:25:32;100588.50;;;20.14